Time;durP1;ratioP1;P1;durP2;ratioP2;P2;SDS_P1;SDS_P2;PMS_P1;PMS_P2;Temp;Humidity;BMP_temperature;BMP_pressure;BME280_temperature;BME280_humidity;BME280_pressure;Samples;Min_cycle;Max_cycle;Signal;HPM_P1;HPM_P2
2024/02/29 00:00:44;;;;;;;30.23;15.85;;;6.30;99.90;;;;;;5034873;28;20041;-76
2024/02/29 00:03:09;;;;;;;27.30;15.43;;;6.30;99.90;;;;;;5047160;28;20040;-75
2024/02/29 00:05:36;;;;;;;25.00;15.15;;;6.30;99.90;;;;;;5042818;28;20515;-76
2024/02/29 00:08:02;;;;;;;27.33;16.00;;;6.30;99.90;;;;;;5041794;28;20415;-75
2024/02/29 00:10:28;;;;;;;26.33;14.98;;;6.20;99.90;;;;;;5052972;28;20037;-76
2024/02/29 00:12:54;;;;;;;28.15;15.85;;;6.20;99.90;;;;;;5051893;28;20419;-76
2024/02/29 00:15:20;;;;;;;26.50;14.98;;;6.20;99.90;;;;;;5051691;28;20033;-76
2024/02/29 00:17:45;;;;;;;26.52;15.63;;;6.20;99.90;;;;;;5053000;28;20037;-77
2024/02/29 00:20:11;;;;;;;27.83;15.70;;;6.20;99.90;;;;;;5034842;28;20045;-77
2024/02/29 00:22:37;;;;;;;26.70;15.27;;;6.20;99.90;;;;;;5052791;28;20088;-76
2024/02/29 00:25:03;;;;;;;30.52;15.63;;;6.20;99.90;;;;;;5035071;28;20094;-77
2024/02/29 00:27:30;;;;;;;25.38;15.65;;;6.20;99.90;;;;;;5052523;28;20036;-77
2024/02/29 00:29:56;;;;;;;25.73;15.40;;;6.20;99.90;;;;;;5052456;28;20092;-77
2024/02/29 00:32:22;;;;;;;34.53;15.50;;;6.20;99.90;;;;;;5052451;28;20048;-77
2024/02/29 00:34:48;;;;;;;26.42;15.50;;;6.20;99.90;;;;;;5038038;28;20102;-76
2024/02/29 00:37:14;;;;;;;28.02;16.02;;;6.20;99.90;;;;;;5026258;28;20049;-77
2024/02/29 00:39:39;;;;;;;29.38;15.32;;;6.10;99.90;;;;;;5037481;28;20029;-77
2024/02/29 00:42:05;;;;;;;26.90;15.35;;;6.10;99.90;;;;;;5051148;28;20051;-76
2024/02/29 00:44:31;;;;;;;29.70;16.35;;;6.10;99.90;;;;;;5052421;28;20049;-76
2024/02/29 00:46:56;;;;;;;28.95;15.57;;;6.10;99.90;;;;;;5034576;28;20037;-77
2024/02/29 00:49:22;;;;;;;27.63;15.25;;;6.10;99.90;;;;;;5030675;28;20053;-76
2024/02/29 00:51:47;;;;;;;26.75;15.57;;;6.10;99.90;;;;;;5032498;28;20033;-77
2024/02/29 00:54:13;;;;;;;25.65;15.05;;;6.10;99.90;;;;;;5015246;28;20057;-77
2024/02/29 00:56:39;;;;;;;26.08;15.10;;;6.10;99.90;;;;;;5052048;28;20037;-76
2024/02/29 00:59:04;;;;;;;27.60;15.90;;;6.10;99.90;;;;;;5034335;28;20127;-77
2024/02/29 01:01:30;;;;;;;24.40;15.18;;;6.10;99.90;;;;;;5051175;28;20394;-77
2024/02/29 01:03:56;;;;;;;25.92;16.13;;;6.00;99.90;;;;;;5052023;28;20045;-76
2024/02/29 01:06:21;;;;;;;26.75;15.70;;;6.00;99.90;;;;;;5047204;28;20116;-76
2024/02/29 01:08:47;;;;;;;26.65;14.98;;;6.10;99.90;;;;;;5047564;28;20040;-77
2024/02/29 01:11:12;;;;;;;27.45;15.27;;;6.00;99.90;;;;;;5051734;28;20040;-77
2024/02/29 01:13:38;;;;;;;27.00;15.85;;;6.00;99.90;;;;;;5051812;28;20071;-77
2024/02/29 01:16:04;;;;;;;26.63;15.75;;;6.00;99.90;;;;;;5034076;28;20076;-77
2024/02/29 01:18:29;;;;;;;29.20;16.50;;;6.00;99.90;;;;;;5033757;28;20718;-76
2024/02/29 01:20:55;;;;;;;28.25;15.35;;;6.00;99.90;;;;;;5034063;28;20047;-77
2024/02/29 01:23:21;;;;;;;27.80;15.35;;;6.00;99.90;;;;;;5033740;28;20048;-77
2024/02/29 01:25:46;;;;;;;26.52;15.50;;;6.10;99.90;;;;;;5030069;28;20048;-77
2024/02/29 01:28:12;;;;;;;27.73;15.48;;;6.10;99.90;;;;;;5032143;28;20099;-76
2024/02/29 01:30:37;;;;;;;28.83;15.85;;;6.20;99.90;;;;;;5032949;28;20045;-77
2024/02/29 01:33:03;;;;;;;30.40;16.00;;;6.10;99.90;;;;;;5041510;28;20117;-77
2024/02/29 01:35:28;;;;;;;27.88;16.50;;;6.10;99.90;;;;;;5043485;28;20033;-77
2024/02/29 01:37:54;;;;;;;31.85;15.63;;;6.10;99.90;;;;;;5038133;28;20040;-76
2024/02/29 01:40:20;;;;;;;28.48;16.45;;;6.20;99.90;;;;;;5042458;28;20108;-77
2024/02/29 01:42:45;;;;;;;24.92;15.80;;;6.20;99.90;;;;;;5050878;28;20037;-77
2024/02/29 01:45:14;;;;;;;30.48;15.93;;;6.20;99.90;;;;;;5033552;28;20048;-76
2024/02/29 01:47:40;;;;;;;27.23;14.90;;;6.20;99.90;;;;;;5050740;28;20120;-77
2024/02/29 01:50:08;;;;;;;27.80;14.80;;;6.20;99.90;;;;;;5033543;28;20124;-77
2024/02/29 01:52:38;;;;;;;26.67;15.07;;;6.20;99.90;;;;;;5033288;28;20515;-77
2024/02/29 01:55:05;;;;;;;29.17;15.43;;;6.20;99.90;;;;;;5033526;28;20229;-77
2024/02/29 01:57:31;;;;;;;24.30;14.82;;;6.20;99.90;;;;;;5051375;28;20499;-77
2024/02/29 01:59:56;;;;;;;24.92;15.32;;;6.20;99.90;;;;;;5030002;28;20552;-77
2024/02/29 02:02:23;;;;;;;24.00;15.50;;;6.20;99.90;;;;;;5030115;28;20080;-76
2024/02/29 02:04:49;;;;;;;26.48;15.98;;;6.20;99.90;;;;;;5030410;28;20407;-76
2024/02/29 02:07:15;;;;;;;24.00;13.68;;;6.20;99.90;;;;;;5033178;28;20059;-77
2024/02/29 02:09:42;;;;;;;23.85;14.27;;;6.20;99.90;;;;;;5051018;28;20446;-76
2024/02/29 02:12:11;;;;;;;24.02;14.52;;;6.20;99.90;;;;;;5041630;28;20059;-77
2024/02/29 02:14:40;;;;;;;28.25;14.98;;;6.20;99.90;;;;;;5051016;28;20122;-75
2024/02/29 02:17:07;;;;;;;24.77;14.40;;;6.30;99.90;;;;;;5033362;28;20033;-76
2024/02/29 02:19:32;;;;;;;26.10;14.57;;;6.20;99.90;;;;;;5051003;28;20101;-76
2024/02/29 02:21:58;;;;;;;20.63;13.27;;;6.30;99.90;;;;;;5050643;28;20245;-76
2024/02/29 02:24:25;;;;;;;24.33;13.93;;;6.30;99.90;;;;;;5050455;28;20099;-76
2024/02/29 02:26:51;;;;;;;25.13;13.48;;;6.30;99.90;;;;;;5050029;28;20037;-76
2024/02/29 02:29:16;;;;;;;23.85;14.10;;;6.30;99.90;;;;;;5054706;28;20032;-75
2024/02/29 02:31:42;;;;;;;25.58;13.77;;;6.30;99.90;;;;;;5039134;28;20402;-76
2024/02/29 02:34:08;;;;;;;20.40;12.32;;;6.30;99.90;;;;;;5055241;28;20048;-76
2024/02/29 02:36:33;;;;;;;22.83;12.73;;;6.50;99.90;;;;;;5053631;28;20037;-77
2024/02/29 02:38:59;;;;;;;22.90;12.70;;;6.30;99.90;;;;;;5054574;28;20116;-77
2024/02/29 02:41:25;;;;;;;23.90;13.95;;;6.30;99.90;;;;;;5054557;28;20098;-77
2024/02/29 02:43:50;;;;;;;24.45;12.40;;;6.30;99.90;;;;;;5045744;28;20039;-77
2024/02/29 02:46:17;;;;;;;22.30;12.65;;;6.30;99.90;;;;;;5054545;28;20041;-77
2024/02/29 02:48:43;;;;;;;22.23;12.63;;;6.30;99.90;;;;;;5054532;28;20111;-77
2024/02/29 02:51:09;;;;;;;19.00;11.95;;;6.30;99.90;;;;;;5052031;28;20040;-77
2024/02/29 02:53:35;;;;;;;20.13;12.43;;;6.30;99.90;;;;;;5054501;28;20037;-77
2024/02/29 02:56:00;;;;;;;22.00;12.63;;;6.40;99.90;;;;;;5054526;28;20120;-77
2024/02/29 02:58:26;;;;;;;20.58;12.55;;;6.40;99.90;;;;;;5038988;28;20384;-77
2024/02/29 03:00:52;;;;;;;20.88;12.27;;;6.30;99.90;;;;;;5034119;28;20114;-77
2024/02/29 03:03:17;;;;;;;21.27;12.13;;;6.40;99.90;;;;;;5036767;28;20039;-77
2024/02/29 03:05:43;;;;;;;20.52;11.40;;;6.40;99.90;;;;;;5036716;28;20498;-76
2024/02/29 03:08:08;;;;;;;21.30;12.02;;;6.40;99.90;;;;;;5054539;28;20055;-76
2024/02/29 03:10:34;;;;;;;24.00;12.00;;;6.40;99.90;;;;;;5036984;28;20037;-77
2024/02/29 03:13:00;;;;;;;24.88;11.45;;;6.40;99.90;;;;;;5053948;28;20470;-76
2024/02/29 03:15:25;;;;;;;20.77;11.95;;;6.40;99.90;;;;;;5050537;28;20025;-77
2024/02/29 03:17:55;;;;;;;19.70;11.88;;;6.40;99.90;;;;;;5053145;28;20495;-76
2024/02/29 03:20:24;;;;;;;20.10;12.05;;;6.40;99.90;;;;;;5041561;28;20123;-75
2024/02/29 03:22:49;;;;;;;25.25;12.00;;;6.40;99.90;;;;;;5040227;28;20045;-76
2024/02/29 03:25:16;;;;;;;22.30;12.05;;;6.40;99.90;;;;;;5054192;28;20067;-76
2024/02/29 03:27:41;;;;;;;20.60;11.60;;;6.40;99.90;;;;;;5053418;28;20037;-77
2024/02/29 03:30:08;;;;;;;19.50;10.70;;;6.40;99.90;;;;;;5054056;28;20037;-76
2024/02/29 03:32:33;;;;;;;21.10;11.82;;;6.40;99.90;;;;;;5051856;28;20041;-77
2024/02/29 03:35:01;;;;;;;18.85;10.75;;;6.40;99.90;;;;;;5019468;28;20564;-77
2024/02/29 03:37:27;;;;;;;21.33;11.73;;;6.50;99.90;;;;;;5035845;28;20049;-77
2024/02/29 03:39:52;;;;;;;21.85;11.77;;;6.50;99.90;;;;;;5053487;28;20037;-77
2024/02/29 03:42:22;;;;;;;25.25;11.57;;;6.50;99.90;;;;;;5051210;23;20174;-76
2024/02/29 03:44:48;;;;;;;18.33;10.57;;;6.40;99.90;;;;;;5023775;28;20168;-77
2024/02/29 03:47:15;;;;;;;24.35;11.50;;;5.20;99.90;;;;;;5030232;28;20049;-77
2024/02/29 03:49:41;;;;;;;18.42;11.02;;;6.40;99.90;;;;;;5030054;28;20416;-77
2024/02/29 03:52:07;;;;;;;25.48;12.93;;;6.40;99.90;;;;;;5011987;28;20034;-77
2024/02/29 03:54:36;;;;;;;20.02;11.23;;;6.40;99.90;;;;;;5011325;28;20034;-76
2024/02/29 03:57:02;;;;;;;21.75;12.45;;;6.40;99.90;;;;;;4998053;28;20048;-77
2024/02/29 03:59:28;;;;;;;21.30;11.43;;;6.40;99.90;;;;;;4995422;28;20038;-77
2024/02/29 04:01:59;;;;;;;20.90;11.77;;;7.20;99.90;;;;;;5011842;28;20037;-77
2024/02/29 04:04:26;;;;;;;23.63;12.95;;;6.30;99.90;;;;;;5013269;28;20042;-77
2024/02/29 04:06:52;;;;;;;20.67;12.00;;;6.50;99.90;;;;;;5013073;28;20041;-77
2024/02/29 04:09:21;;;;;;;23.60;12.48;;;7.60;99.90;;;;;;4989942;28;20045;-77
2024/02/29 04:11:50;;;;;;;23.65;12.85;;;6.30;99.90;;;;;;5013028;28;20041;-77
2024/02/29 04:14:18;;;;;;;21.77;11.90;;;7.80;99.90;;;;;;4995987;28;20038;-77
2024/02/29 04:16:49;;;;;;;25.30;12.13;;;6.30;99.90;;;;;;5014825;28;20053;-78
2024/02/29 04:19:16;;;;;;;22.08;11.82;;;7.20;99.90;;;;;;5014124;28;20044;-77
2024/02/29 04:21:45;;;;;;;23.63;12.35;;;7.70;99.90;;;;;;5014702;28;20046;-77
2024/02/29 04:24:16;;;;;;;24.15;12.10;;;7.60;99.90;;;;;;5013292;28;20646;-77
2024/02/29 04:26:45;;;;;;;21.42;11.48;;;6.40;99.90;;;;;;4996011;28;20034;-77
2024/02/29 04:29:12;;;;;;;21.52;12.20;;;6.20;99.90;;;;;;4992235;28;20144;-78
2024/02/29 04:31:38;;;;;;;20.75;10.95;;;5.30;99.90;;;;;;4995655;28;20045;-78
2024/02/29 04:34:04;;;;;;;24.30;11.85;;;6.30;99.90;;;;;;5010469;28;20061;-78
2024/02/29 04:36:30;;;;;;;23.42;11.57;;;6.80;99.90;;;;;;5003238;28;20381;-78
2024/02/29 04:38:55;;;;;;;23.98;11.63;;;6.30;99.90;;;;;;4995721;28;20137;-77
2024/02/29 04:41:21;;;;;;;20.42;11.50;;;6.60;99.90;;;;;;4996766;28;20539;-77
2024/02/29 04:43:52;;;;;;;20.45;10.77;;;7.60;99.90;;;;;;5015835;28;20033;-77
2024/02/29 04:46:20;;;;;;;27.67;12.15;;;6.30;99.90;;;;;;5048238;28;20041;-77
2024/02/29 04:48:46;;;;;;;20.27;11.88;;;6.40;99.90;;;;;;5033771;28;20123;-77
2024/02/29 04:51:16;;;;;;;22.00;11.15;;;5.80;99.90;;;;;;5050319;28;20423;-77
2024/02/29 04:53:42;;;;;;;21.00;11.45;;;6.40;99.90;;;;;;5053070;28;20055;-77
2024/02/29 04:56:08;;;;;;;18.40;10.82;;;6.10;99.90;;;;;;5050283;28;20125;-77
2024/02/29 04:58:33;;;;;;;21.60;11.00;;;7.10;99.90;;;;;;5033856;28;20043;-78
2024/02/29 05:01:01;;;;;;;21.88;11.25;;;6.40;99.90;;;;;;5038286;28;20083;-78
2024/02/29 05:03:27;;;;;;;18.77;10.77;;;7.50;99.90;;;;;;5047424;28;20048;-77
2024/02/29 05:05:52;;;;;;;20.45;11.80;;;6.40;99.90;;;;;;5049059;28;20441;-77
2024/02/29 05:08:18;;;;;;;19.90;10.80;;;5.70;99.90;;;;;;5019981;28;20057;-77
2024/02/29 05:10:44;;;;;;;23.67;11.20;;;6.40;99.90;;;;;;5017199;28;20502;-77
2024/02/29 05:13:12;;;;;;;20.42;10.80;;;6.90;99.90;;;;;;5052189;28;20120;-77
2024/02/29 05:15:39;;;;;;;25.33;11.57;;;6.90;99.90;;;;;;5052505;28;20108;-78
2024/02/29 05:18:06;;;;;;;20.42;11.25;;;6.30;99.90;;;;;;5042230;28;20116;-78
2024/02/29 05:20:32;;;;;;;23.63;11.80;;;6.40;99.90;;;;;;5051913;28;20033;-77
2024/02/29 05:22:58;;;;;;;25.30;11.95;;;6.40;99.90;;;;;;5048941;28;20097;-77
2024/02/29 05:25:25;;;;;;;19.95;11.15;;;6.40;99.90;;;;;;5049061;28;20096;-77
2024/02/29 05:27:51;;;;;;;24.33;11.80;;;6.40;99.90;;;;;;5014509;28;20032;-77
2024/02/29 05:30:16;;;;;;;25.67;12.45;;;6.20;99.90;;;;;;5018683;28;20083;-77
2024/02/29 05:32:42;;;;;;;23.40;12.13;;;6.40;99.90;;;;;;5014843;28;20513;-76
2024/02/29 05:35:08;;;;;;;21.30;11.50;;;6.90;99.90;;;;;;5045849;28;20086;-77
2024/02/29 05:37:36;;;;;;;24.63;12.10;;;6.30;99.90;;;;;;5019838;28;20163;-77
2024/02/29 05:40:05;;;;;;;27.08;12.95;;;6.20;99.90;;;;;;5032277;28;20044;-77
2024/02/29 05:42:31;;;;;;;25.48;12.23;;;6.30;99.90;;;;;;5016747;28;20041;-78
2024/02/29 05:44:57;;;;;;;25.20;12.13;;;6.80;99.90;;;;;;5037574;28;20090;-78
2024/02/29 05:47:23;;;;;;;28.98;13.52;;;6.60;99.90;;;;;;5033500;28;20041;-79
2024/02/29 05:49:51;;;;;;;23.10;12.68;;;6.30;99.90;;;;;;5051000;28;20033;-78
2024/02/29 05:52:17;;;;;;;23.58;12.18;;;6.30;99.90;;;;;;5033973;28;20091;-77
2024/02/29 05:54:44;;;;;;;24.50;11.90;;;6.90;99.90;;;;;;5050741;28;20055;-78
2024/02/29 05:57:09;;;;;;;21.83;12.63;;;6.90;99.90;;;;;;5023808;28;20124;-78
2024/02/29 05:59:35;;;;;;;24.15;11.93;;;6.70;99.90;;;;;;5016921;28;20072;-77
2024/02/29 06:02:01;;;;;;;26.45;13.30;;;6.30;99.90;;;;;;5052303;28;20036;-78
2024/02/29 06:04:26;;;;;;;31.15;13.32;;;6.30;99.90;;;;;;5051674;28;20076;-77
2024/02/29 06:06:57;;;;;;;26.83;13.10;;;6.30;99.90;;;;;;5028746;28;20051;-76
2024/02/29 06:09:23;;;;;;;25.73;13.45;;;6.30;99.90;;;;;;5055851;28;20071;-77
2024/02/29 06:11:49;;;;;;;26.90;13.10;;;6.30;99.90;;;;;;5032690;28;20041;-77
2024/02/29 06:14:15;;;;;;;28.38;13.30;;;7.60;99.90;;;;;;5044095;28;20041;-77
2024/02/29 06:16:40;;;;;;;24.35;13.68;;;6.30;99.90;;;;;;5047042;28;20105;-77
2024/02/29 06:19:06;;;;;;;25.20;13.05;;;7.30;99.90;;;;;;5019232;28;20175;-77
2024/02/29 06:21:32;;;;;;;27.00;13.07;;;6.30;99.90;;;;;;5055227;28;20036;-77
2024/02/29 06:23:57;;;;;;;24.05;12.80;;;7.40;99.90;;;;;;5035459;28;20115;-77
2024/02/29 06:26:24;;;;;;;23.45;12.73;;;6.70;99.90;;;;;;5038716;28;20063;-77
2024/02/29 06:28:49;;;;;;;27.85;13.23;;;6.80;99.90;;;;;;5053857;28;20043;-77
2024/02/29 06:31:20;;;;;;;23.98;12.85;;;6.60;99.90;;;;;;5022069;28;20041;-77
2024/02/29 06:33:48;;;;;;;25.42;12.70;;;6.20;99.90;;;;;;5032542;28;20071;-77
2024/02/29 06:36:16;;;;;;;21.75;12.45;;;7.60;99.90;;;;;;5045909;28;20036;-77
2024/02/29 06:38:43;;;;;;;25.48;12.48;;;6.30;99.90;;;;;;5049171;28;20041;-77
2024/02/29 06:41:09;;;;;;;23.92;13.10;;;6.60;99.90;;;;;;5022259;28;20079;-77
2024/02/29 06:43:35;;;;;;;24.20;13.32;;;6.30;99.90;;;;;;5054295;28;20507;-77
2024/02/29 06:46:05;;;;;;;25.90;12.80;;;6.30;99.90;;;;;;5019878;28;20052;-77
2024/02/29 06:48:33;;;;;;;26.58;13.10;;;6.40;99.90;;;;;;5038767;28;20419;-77
2024/02/29 06:50:59;;;;;;;23.10;12.48;;;6.40;99.90;;;;;;5036024;28;20041;-77
2024/02/29 06:53:26;;;;;;;25.90;12.68;;;6.40;99.90;;;;;;5036957;28;20044;-77
2024/02/29 06:55:53;;;;;;;25.17;12.73;;;6.30;99.90;;;;;;5022073;28;20044;-77
2024/02/29 06:58:19;;;;;;;22.90;12.13;;;6.40;99.90;;;;;;5037820;28;20539;-77
2024/02/29 07:00:45;;;;;;;24.40;12.98;;;6.40;99.90;;;;;;5037771;28;20033;-77
2024/02/29 07:03:10;;;;;;;27.27;12.18;;;6.40;99.90;;;;;;5021618;28;20049;-76
2024/02/29 07:05:36;;;;;;;25.70;13.32;;;6.50;99.90;;;;;;5054560;28;20502;-76
2024/02/29 07:08:06;;;;;;;25.58;12.35;;;6.50;99.90;;;;;;5020479;28;20044;-76
2024/02/29 07:10:32;;;;;;;26.10;14.05;;;6.50;99.90;;;;;;5020657;28;20036;-77
2024/02/29 07:12:58;;;;;;;26.08;13.55;;;6.50;99.90;;;;;;5036275;28;20431;-77
2024/02/29 07:15:23;;;;;;;23.75;12.48;;;6.90;99.90;;;;;;5035781;28;20116;-76
2024/02/29 07:17:49;;;;;;;24.27;12.73;;;6.60;99.90;;;;;;5020269;28;20040;-76
2024/02/29 07:20:15;;;;;;;22.88;12.10;;;6.60;99.90;;;;;;5035893;28;20037;-76
2024/02/29 07:22:45;;;;;;;25.38;12.95;;;6.60;99.90;;;;;;5036275;28;20041;-75
2024/02/29 07:25:14;;;;;;;22.20;12.75;;;6.60;99.90;;;;;;5020804;28;20072;-75
2024/02/29 07:27:42;;;;;;;25.65;12.93;;;6.60;99.90;;;;;;5035858;28;20045;-76
2024/02/29 07:30:08;;;;;;;21.42;12.93;;;7.40;99.90;;;;;;5036170;28;20053;-75
2024/02/29 07:32:34;;;;;;;23.48;12.82;;;6.60;99.90;;;;;;5036911;28;20045;-76
2024/02/29 07:35:00;;;;;;;27.02;13.75;;;6.60;99.90;;;;;;5018496;28;20065;-76
2024/02/29 07:37:27;;;;;;;25.38;13.57;;;6.60;99.90;;;;;;5052487;28;20461;-75
2024/02/29 07:39:54;;;;;;;22.10;12.68;;;6.50;99.90;;;;;;5034922;28;20045;-76
2024/02/29 07:42:19;;;;;;;25.17;13.00;;;6.60;99.90;;;;;;5035388;28;20040;-76
2024/02/29 07:44:45;;;;;;;27.50;13.30;;;6.60;99.90;;;;;;5052844;28;20095;-76
2024/02/29 07:47:15;;;;;;;26.67;13.82;;;6.60;99.90;;;;;;5053311;28;20044;-76
2024/02/29 07:49:41;;;;;;;27.90;14.43;;;7.10;99.90;;;;;;5018673;28;20044;-76
2024/02/29 07:52:10;;;;;;;24.88;13.57;;;6.60;99.90;;;;;;5018460;28;20094;-75
2024/02/29 07:54:35;;;;;;;28.27;13.75;;;6.60;99.90;;;;;;5053894;28;20620;-75
2024/02/29 07:57:04;;;;;;;28.88;13.60;;;6.60;99.90;;;;;;5054858;28;20083;-75
2024/02/29 07:59:29;;;;;;;27.35;13.63;;;6.60;99.90;;;;;;5035305;28;20094;-75
2024/02/29 08:01:56;;;;;;;26.75;13.20;;;6.60;99.90;;;;;;5037068;28;20036;-75
2024/02/29 08:04:25;;;;;;;25.15;13.30;;;6.60;99.90;;;;;;5037708;28;20041;-75
2024/02/29 08:06:51;;;;;;;24.73;13.02;;;6.60;99.90;;;;;;5019571;28;20511;-76
2024/02/29 08:09:22;;;;;;;27.15;13.43;;;6.60;99.90;;;;;;5054607;28;20127;-76
2024/02/29 08:11:48;;;;;;;25.25;13.65;;;6.60;99.90;;;;;;5036635;28;20036;-76
2024/02/29 08:14:13;;;;;;;25.67;13.20;;;6.60;99.90;;;;;;5055765;28;20047;-76
2024/02/29 08:16:42;;;;;;;27.35;14.25;;;6.60;99.90;;;;;;5036256;28;20121;-76
2024/02/29 08:19:08;;;;;;;24.98;13.13;;;6.60;99.90;;;;;;5003575;28;20507;-76
2024/02/29 08:21:34;;;;;;;28.75;14.38;;;6.60;99.90;;;;;;5054135;28;20114;-76
2024/02/29 08:23:59;;;;;;;29.15;14.13;;;6.70;99.90;;;;;;5050971;28;20402;-76
2024/02/29 08:26:26;;;;;;;29.35;13.88;;;6.60;99.90;;;;;;5052731;28;20454;-76
2024/02/29 08:28:51;;;;;;;28.10;13.50;;;6.70;99.90;;;;;;5035501;28;20116;-76
2024/02/29 08:31:17;;;;;;;24.23;12.45;;;6.70;99.90;;;;;;5034410;28;20136;-76
2024/02/29 08:33:47;;;;;;;27.83;13.65;;;6.70;99.90;;;;;;5035697;28;20045;-76
2024/02/29 08:36:13;;;;;;;25.65;12.55;;;7.50;99.90;;;;;;5035664;28;20557;-76
2024/02/29 08:38:38;;;;;;;25.63;13.25;;;6.70;99.90;;;;;;5034697;28;20041;-76
2024/02/29 08:41:05;;;;;;;24.23;12.80;;;6.70;99.90;;;;;;5052365;28;20036;-76
2024/02/29 08:43:31;;;;;;;23.88;12.60;;;7.90;99.90;;;;;;5035736;28;20037;-76
2024/02/29 08:45:56;;;;;;;24.80;13.23;;;6.70;99.90;;;;;;5034714;28;20112;-76
2024/02/29 08:48:23;;;;;;;22.92;12.57;;;6.70;99.90;;;;;;5033932;28;20068;-75
2024/02/29 08:50:49;;;;;;;26.08;12.63;;;6.80;99.90;;;;;;5052618;28;20724;-75
2024/02/29 08:53:15;;;;;;;28.58;12.48;;;6.70;99.90;;;;;;5015341;28;20577;-75
2024/02/29 08:55:41;;;;;;;23.58;11.70;;;6.70;99.90;;;;;;5051737;28;20032;-75
2024/02/29 08:58:07;;;;;;;22.50;11.85;;;6.80;99.90;;;;;;5033722;28;20076;-76
2024/02/29 09:00:33;;;;;;;25.00;11.68;;;6.90;99.90;;;;;;5032754;28;20095;-76
2024/02/29 09:02:58;;;;;;;21.90;11.75;;;6.80;99.90;;;;;;5051537;28;20076;-75
2024/02/29 09:05:24;;;;;;;21.55;11.35;;;6.80;99.90;;;;;;5035049;28;20072;-76
2024/02/29 09:07:51;;;;;;;21.10;11.35;;;6.80;99.90;;;;;;5017574;28;20056;-77
2024/02/29 09:10:16;;;;;;;25.42;11.85;;;6.80;99.90;;;;;;5051447;28;20044;-77
2024/02/29 09:12:44;;;;;;;23.25;11.68;;;7.10;99.90;;;;;;5035533;28;20029;-77
2024/02/29 09:15:10;;;;;;;18.55;10.38;;;7.90;99.90;;;;;;5034286;28;20041;-77
2024/02/29 09:17:36;;;;;;;19.90;11.13;;;6.90;99.90;;;;;;5033782;28;20512;-76
2024/02/29 09:20:06;;;;;;;22.80;10.43;;;6.90;99.90;;;;;;5035128;28;20033;-76
2024/02/29 09:22:32;;;;;;;19.52;11.63;;;7.80;99.90;;;;;;5052477;28;20431;-76
2024/02/29 09:24:58;;;;;;;19.95;11.20;;;6.90;99.90;;;;;;5051277;28;20562;-75
2024/02/29 09:27:27;;;;;;;20.10;11.23;;;7.90;99.90;;;;;;5035175;28;20087;-76
2024/02/29 09:29:53;;;;;;;19.70;11.07;;;7.00;99.90;;;;;;5019393;28;20406;-75
2024/02/29 09:32:20;;;;;;;20.23;11.60;;;7.00;99.90;;;;;;5052108;28;20462;-76
2024/02/29 09:34:46;;;;;;;20.02;11.05;;;7.00;99.90;;;;;;5033892;28;20041;-76
2024/02/29 09:37:12;;;;;;;23.17;12.00;;;7.60;99.90;;;;;;5050878;28;20045;-75
2024/02/29 09:39:37;;;;;;;22.48;11.93;;;7.00;99.90;;;;;;5051062;28;20037;-75
2024/02/29 09:42:04;;;;;;;18.70;11.48;;;7.00;99.90;;;;;;5034149;28;20044;-76
2024/02/29 09:44:33;;;;;;;21.23;11.55;;;7.10;99.90;;;;;;5085081;22;20516;-77
2024/02/29 09:46:59;;;;;;;21.23;11.13;;;7.10;99.90;;;;;;5039715;28;20047;-77
2024/02/29 09:49:26;;;;;;;23.73;11.65;;;7.10;99.90;;;;;;5042844;28;20036;-77
2024/02/29 09:51:52;;;;;;;22.27;10.82;;;7.10;99.90;;;;;;5042410;28;20036;-77
2024/02/29 09:54:17;;;;;;;20.73;12.15;;;7.10;99.90;;;;;;5032511;28;20037;-76
2024/02/29 09:56:44;;;;;;;19.95;10.68;;;7.10;99.90;;;;;;5026880;28;20033;-77
2024/02/29 09:59:15;;;;;;;24.95;11.75;;;7.20;99.90;;;;;;5021876;28;20044;-78
2024/02/29 10:01:46;;;;;;;21.95;12.02;;;7.10;99.90;;;;;;5038305;28;20030;-76
2024/02/29 10:04:11;;;;;;;23.50;12.20;;;7.10;99.90;;;;;;5022606;28;20483;-77
2024/02/29 10:06:37;;;;;;;20.38;11.25;;;7.20;99.90;;;;;;5024447;28;20037;-77
2024/02/29 10:09:03;;;;;;;23.40;11.80;;;7.20;99.90;;;;;;5008491;28;20127;-77
2024/02/29 10:11:29;;;;;;;21.05;11.60;;;7.20;99.90;;;;;;5008037;28;20041;-77
2024/02/29 10:13:55;;;;;;;19.15;10.82;;;7.20;99.90;;;;;;5022218;28;20050;-76
2024/02/29 10:16:21;;;;;;;23.55;12.57;;;7.30;99.90;;;;;;5005742;28;20117;-78
2024/02/29 10:18:46;;;;;;;21.27;12.32;;;7.30;99.90;;;;;;5021413;28;20037;-77
2024/02/29 10:21:14;;;;;;;24.25;12.45;;;7.30;99.90;;;;;;5021129;28;20048;-76
2024/02/29 10:23:41;;;;;;;25.27;11.48;;;7.30;99.90;;;;;;5018677;28;20090;-76
2024/02/29 10:26:07;;;;;;;23.52;13.15;;;7.30;99.90;;;;;;5021310;28;20131;-76
2024/02/29 10:28:33;;;;;;;21.98;12.68;;;7.40;99.90;;;;;;5019068;28;20045;-79
2024/02/29 10:31:00;;;;;;;22.50;11.82;;;7.40;99.90;;;;;;5031217;28;20091;-76
2024/02/29 10:33:26;;;;;;;20.63;12.13;;;7.40;99.90;;;;;;5031052;28;20099;-76
2024/02/29 10:35:52;;;;;;;18.55;11.77;;;7.40;99.90;;;;;;5036243;28;20072;-76
2024/02/29 10:38:18;;;;;;;20.75;11.00;;;7.40;99.90;;;;;;5021629;28;20061;-76
2024/02/29 10:40:49;;;;;;;21.80;12.10;;;7.50;99.90;;;;;;5022194;28;20468;-76
2024/02/29 10:43:15;;;;;;;17.88;10.95;;;7.50;99.90;;;;;;5018890;28;20042;-76
2024/02/29 10:45:46;;;;;;;20.50;12.38;;;7.50;99.90;;;;;;5041084;28;20119;-76
2024/02/29 10:48:11;;;;;;;25.33;11.35;;;7.30;99.90;;;;;;5041642;28;20045;-76
2024/02/29 10:51:00;;;;;;;23.40;12.35;;;7.60;99.90;;;;;;5023221;28;20669;-77
2024/02/29 10:54:00;;;;;;;22.48;12.25;;;7.60;99.90;;;;;;5043311;28;20125;-76
2024/02/29 10:56:27;;;;;;;21.13;11.57;;;7.60;99.90;;;;;;5025785;28;20030;-76
2024/02/29 10:59:03;;;;;;;22.13;12.07;;;7.60;99.90;;;;;;5043175;28;20084;-76
2024/02/29 11:01:36;;;;;;;20.88;11.50;;;7.70;99.90;;;;;;5025204;28;20116;-76
2024/02/29 11:04:03;;;;;;;20.70;11.68;;;7.70;99.90;;;;;;5042340;28;20154;-76
2024/02/29 11:06:37;;;;;;;19.33;10.75;;;7.70;99.90;;;;;;5025308;28;20037;-76
2024/02/29 11:09:04;;;;;;;19.38;11.85;;;7.70;99.90;;;;;;5040668;28;20460;-76
2024/02/29 11:11:30;;;;;;;24.40;12.10;;;7.80;99.90;;;;;;5026645;28;20053;-76
2024/02/29 11:14:05;;;;;;;23.27;11.95;;;7.80;99.90;;;;;;5025127;28;20373;-76
2024/02/29 11:16:45;;;;;;;23.58;12.60;;;7.90;99.90;;;;;;5024884;28;20053;-76
2024/02/29 11:19:16;;;;;;;20.20;11.30;;;7.90;99.90;;;;;;5008459;28;20033;-76
2024/02/29 11:21:42;;;;;;;20.98;12.20;;;7.90;99.90;;;;;;5026277;28;20041;-76
2024/02/29 11:24:08;;;;;;;21.65;11.95;;;8.00;99.90;;;;;;5026121;28;20874;-76
2024/02/29 11:26:36;;;;;;;24.38;12.57;;;8.00;99.90;;;;;;5026024;28;20040;-76
2024/02/29 11:29:15;;;;;;;20.75;11.70;;;8.00;99.90;;;;;;5025507;28;20041;-76
2024/02/29 11:31:47;;;;;;;19.88;12.10;;;8.00;99.90;;;;;;5047096;28;20056;-78
2024/02/29 11:34:13;;;;;;;;;;;8.00;99.90;;;;;;5054251;28;20068;-76
2024/02/29 11:36:39;;;;;;;21.58;11.48;;;8.00;99.90;;;;;;5052688;28;19917;-77
2024/02/29 11:39:14;;;;;;;19.77;12.05;;;8.00;99.90;;;;;;5016830;28;20041;-76
2024/02/29 11:41:40;;;;;;;22.40;12.32;;;8.00;99.90;;;;;;5033948;28;20099;-76
2024/02/29 11:44:05;;;;;;;20.67;11.82;;;8.00;99.90;;;;;;5016022;28;20053;-77
2024/02/29 11:46:31;;;;;;;19.70;11.77;;;8.00;99.90;;;;;;5041788;28;20080;-75
2024/02/29 11:48:56;;;;;;;21.08;12.70;;;7.90;99.90;;;;;;5043964;28;20044;-75
2024/02/29 11:51:23;;;;;;;19.60;11.55;;;7.90;99.90;;;;;;5025911;28;20099;-75
2024/02/29 11:53:49;;;;;;;23.33;13.27;;;8.20;99.90;;;;;;5040976;28;20042;-75
2024/02/29 11:56:15;;;;;;;21.55;12.55;;;7.90;99.90;;;;;;5035833;28;20037;-75
2024/02/29 11:58:41;;;;;;;20.33;11.73;;;7.90;99.90;;;;;;5032274;28;20113;-76
2024/02/29 12:01:07;;;;;;;26.17;13.02;;;7.90;99.90;;;;;;5035613;28;20543;-75
2024/02/29 12:03:33;;;;;;;23.00;12.65;;;7.90;99.90;;;;;;5031196;28;20037;-76
2024/02/29 12:05:59;;;;;;;24.58;12.88;;;7.90;99.90;;;;;;5033303;28;20451;-75
2024/02/29 12:08:28;;;;;;;19.98;11.63;;;7.90;99.90;;;;;;5019645;28;20046;-74
2024/02/29 12:10:58;;;;;;;21.38;12.60;;;7.80;99.90;;;;;;5046468;28;20052;-74
2024/02/29 12:13:25;;;;;;;22.85;11.82;;;7.90;99.90;;;;;;5031114;28;20042;-74
2024/02/29 12:15:53;;;;;;;22.60;13.02;;;7.90;99.90;;;;;;5023486;28;20045;-75
2024/02/29 12:18:19;;;;;;;22.17;12.52;;;7.90;99.90;;;;;;5032500;28;20065;-75
2024/02/29 12:20:46;;;;;;;26.20;14.15;;;8.20;99.90;;;;;;5015152;28;20033;-75
2024/02/29 12:23:15;;;;;;;19.48;11.63;;;7.90;99.90;;;;;;5032124;28;20052;-75
2024/02/29 12:25:45;;;;;;;20.20;12.02;;;7.90;99.90;;;;;;5030851;28;20064;-75
2024/02/29 12:28:12;;;;;;;22.58;11.55;;;7.90;99.90;;;;;;5032948;28;20080;-75
2024/02/29 12:30:38;;;;;;;20.95;12.25;;;7.90;99.90;;;;;;5032654;28;20454;-75
2024/02/29 12:33:05;;;;;;;21.10;12.45;;;7.90;99.90;;;;;;5015088;28;20416;-75
2024/02/29 12:35:32;;;;;;;24.13;12.13;;;8.00;99.90;;;;;;5016525;28;20087;-74